Metar z połowy godziny Komunikat METAR ze strony awiacja.imgw.pl Metar G30 EPDA METAR EPDA 171730Z 16006KT 110V200 9999 BKN077 21/11 Q1009 RMK 209 053 7/7=